sensor_id;sensor_type;location;lat;lon;timestamp;temperature;humidity
62259;DHT22;48241;48.824;10.102;2023-01-25T00:00:52;3.20;99.50
62259;DHT22;48241;48.824;10.102;2023-01-25T00:03:36;3.10;99.60
62259;DHT22;48241;48.824;10.102;2023-01-25T00:06:01;3.60;98.50
62259;DHT22;48241;48.824;10.102;2023-01-25T00:08:27;3.70;98.30
62259;DHT22;48241;48.824;10.102;2023-01-25T00:10:53;3.80;97.20
62259;DHT22;48241;48.824;10.102;2023-01-25T00:13:19;3.70;97.40
62259;DHT22;48241;48.824;10.102;2023-01-25T00:15:44;4.00;97.20
62259;DHT22;48241;48.824;10.102;2023-01-25T00:18:10;3.90;97.70
62259;DHT22;48241;48.824;10.102;2023-01-25T00:20:35;3.70;97.50
62259;DHT22;48241;48.824;10.102;2023-01-25T00:23:01;3.50;98.00
62259;DHT22;48241;48.824;10.102;2023-01-25T00:25:26;3.40;98.10
62259;DHT22;48241;48.824;10.102;2023-01-25T00:27:52;3.20;99.10
62259;DHT22;48241;48.824;10.102;2023-01-25T00:30:18;3.40;98.40
62259;DHT22;48241;48.824;10.102;2023-01-25T00:33:01;3.30;98.20
62259;DHT22;48241;48.824;10.102;2023-01-25T00:35:30;3.40;98.20
62259;DHT22;48241;48.824;10.102;2023-01-25T00:38:01;3.40;98.90
62259;DHT22;48241;48.824;10.102;2023-01-25T00:40:27;3.70;97.70
62259;DHT22;48241;48.824;10.102;2023-01-25T00:42:53;3.50;97.60
62259;DHT22;48241;48.824;10.102;2023-01-25T00:45:18;3.50;98.10
62259;DHT22;48241;48.824;10.102;2023-01-25T00:47:44;3.50;98.00
62259;DHT22;48241;48.824;10.102;2023-01-25T00:50:30;3.40;98.70
62259;DHT22;48241;48.824;10.102;2023-01-25T00:52:56;3.80;97.40
62259;DHT22;48241;48.824;10.102;2023-01-25T00:55:21;3.70;97.50
62259;DHT22;48241;48.824;10.102;2023-01-25T00:57:47;3.60;97.40
62259;DHT22;48241;48.824;10.102;2023-01-25T01:00:13;3.40;97.40
62259;DHT22;48241;48.824;10.102;2023-01-25T01:02:54;3.30;98.40
62259;DHT22;48241;48.824;10.102;2023-01-25T01:05:19;3.50;97.80
62259;DHT22;48241;48.824;10.102;2023-01-25T01:07:48;3.50;98.30
62259;DHT22;48241;48.824;10.102;2023-01-25T01:10:14;3.50;97.60
62259;DHT22;48241;48.824;10.102;2023-01-25T01:12:39;3.20;98.00
62259;DHT22;48241;48.824;10.102;2023-01-25T01:15:08;3.00;99.10
62259;DHT22;48241;48.824;10.102;2023-01-25T01:17:34;3.30;98.60
62259;DHT22;48241;48.824;10.102;2023-01-25T01:19:59;3.60;97.70
62259;DHT22;48241;48.824;10.102;2023-01-25T01:22:31;3.40;97.50
62259;DHT22;48241;48.824;10.102;2023-01-25T01:24:56;3.10;98.70
62259;DHT22;48241;48.824;10.102;2023-01-25T01:27:22;3.30;98.20
62259;DHT22;48241;48.824;10.102;2023-01-25T01:29:47;3.00;98.60
62259;DHT22;48241;48.824;10.102;2023-01-25T01:32:13;3.10;99.00
62259;DHT22;48241;48.824;10.102;2023-01-25T01:34:40;3.30;98.10
62259;DHT22;48241;48.824;10.102;2023-01-25T01:37:31;3.50;98.50
62259;DHT22;48241;48.824;10.102;2023-01-25T01:39:56;3.70;97.30
62259;DHT22;48241;48.824;10.102;2023-01-25T01:42:24;3.60;97.20
62259;DHT22;48241;48.824;10.102;2023-01-25T01:44:53;3.50;97.80
62259;DHT22;48241;48.824;10.102;2023-01-25T01:47:30;3.70;97.50
62259;DHT22;48241;48.824;10.102;2023-01-25T01:50:20;3.60;96.80
62259;DHT22;48241;48.824;10.102;2023-01-25T01:52:49;3.30;98.10
62259;DHT22;48241;48.824;10.102;2023-01-25T01:55:20;3.40;97.90
62259;DHT22;48241;48.824;10.102;2023-01-25T01:57:54;3.50;97.40
62259;DHT22;48241;48.824;10.102;2023-01-25T02:00:39;3.50;97.20
62259;DHT22;48241;48.824;10.102;2023-01-25T02:03:06;3.50;97.60
62259;DHT22;48241;48.824;10.102;2023-01-25T02:08:04;2.90;98.30
62259;DHT22;48241;48.824;10.102;2023-01-25T02:10:30;3.00;98.80
62259;DHT22;48241;48.824;10.102;2023-01-25T02:12:59;2.90;99.00
62259;DHT22;48241;48.824;10.102;2023-01-25T02:15:37;2.60;99.50
62259;DHT22;48241;48.824;10.102;2023-01-25T02:18:04;2.30;99.90
62259;DHT22;48241;48.824;10.102;2023-01-25T02:20:55;2.30;99.90
62259;DHT22;48241;48.824;10.102;2023-01-25T02:26:04;2.40;99.90
62259;DHT22;48241;48.824;10.102;2023-01-25T02:31:05;3.40;98.80
62259;DHT22;48241;48.824;10.102;2023-01-25T02:33:31;2.90;98.60
62259;DHT22;48241;48.824;10.102;2023-01-25T02:38:40;2.60;99.60
62259;DHT22;48241;48.824;10.102;2023-01-25T02:41:14;2.70;99.20
62259;DHT22;48241;48.824;10.102;2023-01-25T02:43:41;2.60;99.90
62259;DHT22;48241;48.824;10.102;2023-01-25T02:46:12;2.80;99.70
62259;DHT22;48241;48.824;10.102;2023-01-25T02:48:53;2.90;99.40
62259;DHT22;48241;48.824;10.102;2023-01-25T02:51:23;2.80;99.40
62259;DHT22;48241;48.824;10.102;2023-01-25T02:53:51;2.80;99.10
62259;DHT22;48241;48.824;10.102;2023-01-25T02:56:17;2.90;99.30
62259;DHT22;48241;48.824;10.102;2023-01-25T02:58:44;3.00;98.20
62259;DHT22;48241;48.824;10.102;2023-01-25T03:01:10;3.00;98.40
62259;DHT22;48241;48.824;10.102;2023-01-25T03:03:35;3.20;98.60
62259;DHT22;48241;48.824;10.102;2023-01-25T03:06:05;3.10;97.50
62259;DHT22;48241;48.824;10.102;2023-01-25T03:08:32;3.00;98.30
62259;DHT22;48241;48.824;10.102;2023-01-25T03:10:59;2.50;99.40
62259;DHT22;48241;48.824;10.102;2023-01-25T03:13:26;2.70;99.40
62259;DHT22;48241;48.824;10.102;2023-01-25T03:15:58;2.80;99.10
62259;DHT22;48241;48.824;10.102;2023-01-25T03:18:24;3.00;98.80
62259;DHT22;48241;48.824;10.102;2023-01-25T03:20:50;3.10;97.90
62259;DHT22;48241;48.824;10.102;2023-01-25T03:23:15;3.30;97.80
62259;DHT22;48241;48.824;10.102;2023-01-25T03:25:41;3.30;97.30
62259;DHT22;48241;48.824;10.102;2023-01-25T03:28:06;3.30;97.10
62259;DHT22;48241;48.824;10.102;2023-01-25T03:30:32;2.90;98.10
62259;DHT22;48241;48.824;10.102;2023-01-25T03:32:58;2.90;98.60
62259;DHT22;48241;48.824;10.102;2023-01-25T03:35:23;3.00;98.30
62259;DHT22;48241;48.824;10.102;2023-01-25T03:37:49;3.30;97.90
62259;DHT22;48241;48.824;10.102;2023-01-25T03:40:14;3.20;97.20
62259;DHT22;48241;48.824;10.102;2023-01-25T03:42:40;3.30;97.80
62259;DHT22;48241;48.824;10.102;2023-01-25T03:45:06;3.20;97.30
62259;DHT22;48241;48.824;10.102;2023-01-25T03:47:32;2.80;98.10
62259;DHT22;48241;48.824;10.102;2023-01-25T03:49:58;2.70;98.50
62259;DHT22;48241;48.824;10.102;2023-01-25T03:52:23;2.80;99.00
62259;DHT22;48241;48.824;10.102;2023-01-25T03:54:51;2.90;98.30
62259;DHT22;48241;48.824;10.102;2023-01-25T03:57:16;2.80;98.20
62259;DHT22;48241;48.824;10.102;2023-01-25T03:59:42;2.80;98.00
62259;DHT22;48241;48.824;10.102;2023-01-25T04:02:07;2.70;98.40
62259;DHT22;48241;48.824;10.102;2023-01-25T04:04:34;2.90;98.80
62259;DHT22;48241;48.824;10.102;2023-01-25T04:07:00;3.00;97.60
62259;DHT22;48241;48.824;10.102;2023-01-25T04:09:25;3.00;97.50
62259;DHT22;48241;48.824;10.102;2023-01-25T04:11:53;2.80;99.10
62259;DHT22;48241;48.824;10.102;2023-01-25T04:14:18;2.60;98.90
62259;DHT22;48241;48.824;10.102;2023-01-25T04:16:44;2.50;99.00
62259;DHT22;48241;48.824;10.102;2023-01-25T04:19:10;2.40;99.90
62259;DHT22;48241;48.824;10.102;2023-01-25T04:21:35;2.40;99.50
62259;DHT22;48241;48.824;10.102;2023-01-25T04:24:01;2.50;99.80
62259;DHT22;48241;48.824;10.102;2023-01-25T04:26:26;2.40;99.70
62259;DHT22;48241;48.824;10.102;2023-01-25T04:28:52;2.20;99.90
62259;DHT22;48241;48.824;10.102;2023-01-25T04:31:17;2.30;99.90
62259;DHT22;48241;48.824;10.102;2023-01-25T04:33:43;2.60;99.90
62259;DHT22;48241;48.824;10.102;2023-01-25T04:36:09;2.40;99.80
62259;DHT22;48241;48.824;10.102;2023-01-25T04:38:34;2.20;99.90
62259;DHT22;48241;48.824;10.102;2023-01-25T04:41:01;2.10;99.90
62259;DHT22;48241;48.824;10.102;2023-01-25T04:43:28;1.90;99.90
62259;DHT22;48241;48.824;10.102;2023-01-25T04:45:54;2.00;99.90
62259;DHT22;48241;48.824;10.102;2023-01-25T04:48:19;2.10;99.90
62259;DHT22;48241;48.824;10.102;2023-01-25T04:50:45;2.50;99.90
62259;DHT22;48241;48.824;10.102;2023-01-25T04:53:11;2.80;99.60
62259;DHT22;48241;48.824;10.102;2023-01-25T04:55:37;3.00;98.60
62259;DHT22;48241;48.824;10.102;2023-01-25T04:58:03;3.00;97.80
62259;DHT22;48241;48.824;10.102;2023-01-25T05:00:29;2.90;98.40
62259;DHT22;48241;48.824;10.102;2023-01-25T05:02:55;2.90;98.70
62259;DHT22;48241;48.824;10.102;2023-01-25T05:05:21;2.70;99.10
62259;DHT22;48241;48.824;10.102;2023-01-25T05:07:47;2.70;99.20
62259;DHT22;48241;48.824;10.102;2023-01-25T05:10:12;2.60;99.10
62259;DHT22;48241;48.824;10.102;2023-01-25T05:12:38;2.80;98.60
62259;DHT22;48241;48.824;10.102;2023-01-25T05:15:24;2.80;99.00
62259;DHT22;48241;48.824;10.102;2023-01-25T05:17:49;2.80;99.10
62259;DHT22;48241;48.824;10.102;2023-01-25T05:20:15;2.50;99.90
62259;DHT22;48241;48.824;10.102;2023-01-25T05:22:41;2.70;99.10
62259;DHT22;48241;48.824;10.102;2023-01-25T05:25:06;2.80;98.90
62259;DHT22;48241;48.824;10.102;2023-01-25T05:27:52;2.90;98.30
62259;DHT22;48241;48.824;10.102;2023-01-25T05:30:18;2.70;98.80
62259;DHT22;48241;48.824;10.102;2023-01-25T05:32:44;2.70;99.30
62259;DHT22;48241;48.824;10.102;2023-01-25T05:35:09;2.90;98.70
62259;DHT22;48241;48.824;10.102;2023-01-25T05:37:35;2.80;99.00
62259;DHT22;48241;48.824;10.102;2023-01-25T05:40:00;3.00;98.60
62259;DHT22;48241;48.824;10.102;2023-01-25T05:42:26;2.70;98.80
62259;DHT22;48241;48.824;10.102;2023-01-25T05:44:51;2.90;99.00
62259;DHT22;48241;48.824;10.102;2023-01-25T05:47:18;2.70;98.80
62259;DHT22;48241;48.824;10.102;2023-01-25T05:49:45;2.70;99.20
62259;DHT22;48241;48.824;10.102;2023-01-25T05:52:15;2.90;99.20
62259;DHT22;48241;48.824;10.102;2023-01-25T05:57:16;3.40;98.20
62259;DHT22;48241;48.824;10.102;2023-01-25T05:59:42;3.80;97.00
62259;DHT22;48241;48.824;10.102;2023-01-25T06:02:10;3.80;96.30
62259;DHT22;48241;48.824;10.102;2023-01-25T06:04:35;3.80;95.50
62259;DHT22;48241;48.824;10.102;2023-01-25T06:07:01;3.90;95.80
62259;DHT22;48241;48.824;10.102;2023-01-25T06:09:27;4.00;95.10
62259;DHT22;48241;48.824;10.102;2023-01-25T06:11:52;4.00;94.70
62259;DHT22;48241;48.824;10.102;2023-01-25T06:14:21;3.60;95.00
62259;DHT22;48241;48.824;10.102;2023-01-25T06:16:48;3.60;96.00
62259;DHT22;48241;48.824;10.102;2023-01-25T06:19:16;3.60;95.30
62259;DHT22;48241;48.824;10.102;2023-01-25T07:05:40;3.00;95.80
62259;DHT22;48241;48.824;10.102;2023-01-25T07:08:06;2.90;97.20
62259;DHT22;48241;48.824;10.102;2023-01-25T07:10:31;2.80;96.60
62259;DHT22;48241;48.824;10.102;2023-01-25T07:12:57;2.80;97.10
62259;DHT22;48241;48.824;10.102;2023-01-25T07:15:22;3.00;97.20
62259;DHT22;48241;48.824;10.102;2023-01-25T07:17:48;2.90;97.30
62259;DHT22;48241;48.824;10.102;2023-01-25T07:20:14;2.90;97.00
62259;DHT22;48241;48.824;10.102;2023-01-25T07:22:40;2.80;97.60
62259;DHT22;48241;48.824;10.102;2023-01-25T07:25:05;2.40;98.10
62259;DHT22;48241;48.824;10.102;2023-01-25T07:27:34;2.60;98.10
62259;DHT22;48241;48.824;10.102;2023-01-25T07:30:00;2.80;97.60
62259;DHT22;48241;48.824;10.102;2023-01-25T07:32:27;3.00;97.10
62259;DHT22;48241;48.824;10.102;2023-01-25T07:34:53;3.10;96.60
62259;DHT22;48241;48.824;10.102;2023-01-25T07:37:18;3.00;96.40
62259;DHT22;48241;48.824;10.102;2023-01-25T07:39:44;3.40;96.30
62259;DHT22;48241;48.824;10.102;2023-01-25T07:42:13;3.40;95.60
62259;DHT22;48241;48.824;10.102;2023-01-25T07:44:39;3.20;96.20
62259;DHT22;48241;48.824;10.102;2023-01-25T07:47:05;3.30;95.90
62259;DHT22;48241;48.824;10.102;2023-01-25T07:49:31;3.40;95.90
62259;DHT22;48241;48.824;10.102;2023-01-25T07:51:56;3.40;95.90
62259;DHT22;48241;48.824;10.102;2023-01-25T07:54:22;3.70;95.40
62259;DHT22;48241;48.824;10.102;2023-01-25T07:56:48;3.50;95.00
62259;DHT22;48241;48.824;10.102;2023-01-25T08:02:31;3.80;94.50
62259;DHT22;48241;48.824;10.102;2023-01-25T08:05:09;3.40;95.90
62259;DHT22;48241;48.824;10.102;2023-01-25T08:07:35;3.60;95.90
62259;DHT22;48241;48.824;10.102;2023-01-25T08:13:02;4.10;94.80
62259;DHT22;48241;48.824;10.102;2023-01-25T08:15:28;4.40;93.70
62259;DHT22;48241;48.824;10.102;2023-01-25T08:17:53;4.30;93.70
62259;DHT22;48241;48.824;10.102;2023-01-25T08:20:19;4.40;93.70
62259;DHT22;48241;48.824;10.102;2023-01-25T08:22:46;4.20;93.40
62259;DHT22;48241;48.824;10.102;2023-01-25T08:25:35;4.00;94.50
62259;DHT22;48241;48.824;10.102;2023-01-25T08:28:01;3.70;95.00
62259;DHT22;48241;48.824;10.102;2023-01-25T08:30:26;3.50;95.00
62259;DHT22;48241;48.824;10.102;2023-01-25T08:32:52;3.30;95.60
62259;DHT22;48241;48.824;10.102;2023-01-25T08:35:18;3.40;95.60
62259;DHT22;48241;48.824;10.102;2023-01-25T08:37:44;3.60;95.80
62259;DHT22;48241;48.824;10.102;2023-01-25T08:40:10;3.60;95.60
62259;DHT22;48241;48.824;10.102;2023-01-25T08:42:41;3.80;95.40
62259;DHT22;48241;48.824;10.102;2023-01-25T08:45:09;3.80;95.10
62259;DHT22;48241;48.824;10.102;2023-01-25T08:47:37;3.70;95.00
62259;DHT22;48241;48.824;10.102;2023-01-25T08:50:04;3.40;95.60
62259;DHT22;48241;48.824;10.102;2023-01-25T08:52:37;3.50;95.80
62259;DHT22;48241;48.824;10.102;2023-01-25T08:55:02;3.70;95.30
62259;DHT22;48241;48.824;10.102;2023-01-25T08:57:29;3.70;95.00
62259;DHT22;48241;48.824;10.102;2023-01-25T08:59:55;3.60;94.50
62259;DHT22;48241;48.824;10.102;2023-01-25T09:02:20;3.80;95.10
62259;DHT22;48241;48.824;10.102;2023-01-25T09:04:46;3.90;95.40
62259;DHT22;48241;48.824;10.102;2023-01-25T09:07:44;4.10;94.60
62259;DHT22;48241;48.824;10.102;2023-01-25T09:10:10;4.30;94.00
62259;DHT22;48241;48.824;10.102;2023-01-25T09:12:35;4.40;93.80
62259;DHT22;48241;48.824;10.102;2023-01-25T09:15:02;4.50;93.00
62259;DHT22;48241;48.824;10.102;2023-01-25T09:17:28;4.80;93.10
62259;DHT22;48241;48.824;10.102;2023-01-25T09:19:53;4.80;92.10
62259;DHT22;48241;48.824;10.102;2023-01-25T09:22:19;4.60;92.30
62259;DHT22;48241;48.824;10.102;2023-01-25T09:24:44;4.50;92.80
62259;DHT22;48241;48.824;10.102;2023-01-25T09:27:10;4.60;93.10
62259;DHT22;48241;48.824;10.102;2023-01-25T09:29:36;4.50;92.20
62259;DHT22;48241;48.824;10.102;2023-01-25T09:32:01;3.80;94.50
62259;DHT22;48241;48.824;10.102;2023-01-25T09:34:27;3.80;95.20
62259;DHT22;48241;48.824;10.102;2023-01-25T09:36:58;3.40;95.20
62259;DHT22;48241;48.824;10.102;2023-01-25T09:39:27;3.40;95.90
62259;DHT22;48241;48.824;10.102;2023-01-25T09:48:31;3.20;96.10
62259;DHT22;48241;48.824;10.102;2023-01-25T09:51:23;3.60;95.10
62259;DHT22;48241;48.824;10.102;2023-01-25T09:53:52;3.60;95.20
62259;DHT22;48241;48.824;10.102;2023-01-25T09:56:26;4.20;94.40
62259;DHT22;48241;48.824;10.102;2023-01-25T09:59:09;4.20;93.20
62259;DHT22;48241;48.824;10.102;2023-01-25T10:01:52;4.00;94.10
62259;DHT22;48241;48.824;10.102;2023-01-25T10:04:40;3.90;94.00
62259;DHT22;48241;48.824;10.102;2023-01-25T10:10:23;3.60;94.80
62259;DHT22;48241;48.824;10.102;2023-01-25T10:12:52;3.50;95.10
62259;DHT22;48241;48.824;10.102;2023-01-25T10:15:22;3.90;94.60
62259;DHT22;48241;48.824;10.102;2023-01-25T10:18:18;4.00;94.10
62259;DHT22;48241;48.824;10.102;2023-01-25T10:20:50;4.40;93.50
62259;DHT22;48241;48.824;10.102;2023-01-25T10:23:26;4.50;92.70
62259;DHT22;48241;48.824;10.102;2023-01-25T10:26:25;4.40;93.00
62259;DHT22;48241;48.824;10.102;2023-01-25T10:29:33;4.50;93.30
62259;DHT22;48241;48.824;10.102;2023-01-25T10:32:31;4.80;92.80
62259;DHT22;48241;48.824;10.102;2023-01-25T10:35:20;4.60;93.00
62259;DHT22;48241;48.824;10.102;2023-01-25T10:37:49;4.50;93.20
62259;DHT22;48241;48.824;10.102;2023-01-25T10:40:23;4.40;93.30
62259;DHT22;48241;48.824;10.102;2023-01-25T10:43:04;4.30;92.60
62259;DHT22;48241;48.824;10.102;2023-01-25T10:45:32;4.10;93.20
62259;DHT22;48241;48.824;10.102;2023-01-25T10:48:01;4.10;94.30
62259;DHT22;48241;48.824;10.102;2023-01-25T10:50:41;4.30;94.10
62259;DHT22;48241;48.824;10.102;2023-01-25T10:53:27;4.30;93.10
62259;DHT22;48241;48.824;10.102;2023-01-25T10:58:39;4.50;93.40
62259;DHT22;48241;48.824;10.102;2023-01-25T11:01:25;4.60;93.10
62259;DHT22;48241;48.824;10.102;2023-01-25T11:03:54;4.30;93.50
62259;DHT22;48241;48.824;10.102;2023-01-25T11:06:37;4.20;94.10
62259;DHT22;48241;48.824;10.102;2023-01-25T11:09:36;3.70;95.10
62259;DHT22;48241;48.824;10.102;2023-01-25T11:14:32;3.70;95.10
62259;DHT22;48241;48.824;10.102;2023-01-25T11:17:00;3.60;95.30
62259;DHT22;48241;48.824;10.102;2023-01-25T11:19:38;3.70;95.20
62259;DHT22;48241;48.824;10.102;2023-01-25T11:24:43;3.50;95.20
62259;DHT22;48241;48.824;10.102;2023-01-25T11:27:16;3.60;95.90
62259;DHT22;48241;48.824;10.102;2023-01-25T11:29:42;3.80;94.80
62259;DHT22;48241;48.824;10.102;2023-01-25T11:32:20;3.70;94.40
62259;DHT22;48241;48.824;10.102;2023-01-25T11:34:49;3.70;95.10
62259;DHT22;48241;48.824;10.102;2023-01-25T11:37:25;3.50;94.70
62259;DHT22;48241;48.824;10.102;2023-01-25T11:40:11;4.00;94.90
62259;DHT22;48241;48.824;10.102;2023-01-25T11:42:42;3.80;94.10
62259;DHT22;48241;48.824;10.102;2023-01-25T11:53:59;4.30;94.30
62259;DHT22;48241;48.824;10.102;2023-01-25T12:04:47;4.10;95.30
62259;DHT22;48241;48.824;10.102;2023-01-25T12:13:34;4.40;93.00
62259;DHT22;48241;48.824;10.102;2023-01-25T12:16:23;4.40;92.90
62259;DHT22;48241;48.824;10.102;2023-01-25T12:24:06;4.40;92.90
62259;DHT22;48241;48.824;10.102;2023-01-25T12:26:54;4.60;92.20
62259;DHT22;48241;48.824;10.102;2023-01-25T12:29:39;4.40;92.10
62259;DHT22;48241;48.824;10.102;2023-01-25T12:32:25;4.40;92.80
62259;DHT22;48241;48.824;10.102;2023-01-25T12:38:03;4.40;93.60
62259;DHT22;48241;48.824;10.102;2023-01-25T12:41:04;4.60;92.70
62259;DHT22;48241;48.824;10.102;2023-01-25T12:43:39;4.50;93.10
62259;DHT22;48241;48.824;10.102;2023-01-25T12:49:21;4.50;92.30
62259;DHT22;48241;48.824;10.102;2023-01-25T18:51:15;3.80;92.80
62259;DHT22;48241;48.824;10.102;2023-01-25T18:53:53;3.70;92.70
62259;DHT22;48241;48.824;10.102;2023-01-25T18:56:22;3.70;93.50
62259;DHT22;48241;48.824;10.102;2023-01-25T18:58:48;3.90;93.10
62259;DHT22;48241;48.824;10.102;2023-01-25T19:01:24;3.90;92.70
62259;DHT22;48241;48.824;10.102;2023-01-25T19:03:53;3.90;92.60
62259;DHT22;48241;48.824;10.102;2023-01-25T19:06:19;3.80;93.20
62259;DHT22;48241;48.824;10.102;2023-01-25T19:08:56;4.00;92.50
62259;DHT22;48241;48.824;10.102;2023-01-25T19:11:26;4.10;92.30
62259;DHT22;48241;48.824;10.102;2023-01-25T19:13:52;4.20;91.90
62259;DHT22;48241;48.824;10.102;2023-01-25T19:16:41;4.10;92.20
62259;DHT22;48241;48.824;10.102;2023-01-25T19:19:08;4.00;92.40
62259;DHT22;48241;48.824;10.102;2023-01-25T19:21:34;4.00;92.50
62259;DHT22;48241;48.824;10.102;2023-01-25T19:23:59;4.00;92.80
62259;DHT22;48241;48.824;10.102;2023-01-25T19:26:34;3.70;92.00
62259;DHT22;48241;48.824;10.102;2023-01-25T19:29:01;3.60;92.80
62259;DHT22;48241;48.824;10.102;2023-01-25T19:31:26;3.80;93.20
62259;DHT22;48241;48.824;10.102;2023-01-25T19:34:13;3.50;93.60
62259;DHT22;48241;48.824;10.102;2023-01-25T19:36:46;3.80;93.30
62259;DHT22;48241;48.824;10.102;2023-01-25T19:39:15;3.60;94.10
62259;DHT22;48241;48.824;10.102;2023-01-25T19:41:43;3.70;94.30
62259;DHT22;48241;48.824;10.102;2023-01-25T19:44:29;3.90;93.50
62259;DHT22;48241;48.824;10.102;2023-01-25T19:46:54;3.80;93.60
62259;DHT22;48241;48.824;10.102;2023-01-25T19:49:20;4.10;92.70
62259;DHT22;48241;48.824;10.102;2023-01-25T19:51:46;4.00;92.40
62259;DHT22;48241;48.824;10.102;2023-01-25T19:54:17;3.90;92.50
62259;DHT22;48241;48.824;10.102;2023-01-25T19:56:45;3.80;93.40
62259;DHT22;48241;48.824;10.102;2023-01-25T19:59:14;4.10;93.00
62259;DHT22;48241;48.824;10.102;2023-01-25T20:01:40;4.00;92.50
62259;DHT22;48241;48.824;10.102;2023-01-25T20:04:08;4.20;92.10
62259;DHT22;48241;48.824;10.102;2023-01-25T20:06:35;3.90;92.30
62259;DHT22;48241;48.824;10.102;2023-01-25T20:09:00;3.90;92.60
62259;DHT22;48241;48.824;10.102;2023-01-25T20:11:28;4.00;92.20
62259;DHT22;48241;48.824;10.102;2023-01-25T20:13:56;4.10;91.50
62259;DHT22;48241;48.824;10.102;2023-01-25T20:16:23;3.90;91.30
62259;DHT22;48241;48.824;10.102;2023-01-25T20:18:49;3.80;91.90
62259;DHT22;48241;48.824;10.102;2023-01-25T20:21:17;3.80;92.50
62259;DHT22;48241;48.824;10.102;2023-01-25T20:23:44;4.00;92.50
62259;DHT22;48241;48.824;10.102;2023-01-25T20:31:40;3.90;91.10
62259;DHT22;48241;48.824;10.102;2023-01-25T20:34:10;3.60;91.80
62259;DHT22;48241;48.824;10.102;2023-01-25T20:36:36;3.50;92.50
62259;DHT22;48241;48.824;10.102;2023-01-25T20:39:03;3.60;92.60
62259;DHT22;48241;48.824;10.102;2023-01-25T20:41:35;3.40;92.00
62259;DHT22;48241;48.824;10.102;2023-01-25T20:44:02;3.20;92.40
62259;DHT22;48241;48.824;10.102;2023-01-25T20:46:39;3.20;93.00
62259;DHT22;48241;48.824;10.102;2023-01-25T20:49:12;3.30;92.60
62259;DHT22;48241;48.824;10.102;2023-01-25T20:51:38;3.30;92.50
62259;DHT22;48241;48.824;10.102;2023-01-25T20:54:04;3.20;92.70
62259;DHT22;48241;48.824;10.102;2023-01-25T20:56:30;3.10;92.70
62259;DHT22;48241;48.824;10.102;2023-01-25T20:58:57;3.10;92.80
62259;DHT22;48241;48.824;10.102;2023-01-25T21:01:28;3.20;93.10
62259;DHT22;48241;48.824;10.102;2023-01-25T21:03:55;3.30;93.00
62259;DHT22;48241;48.824;10.102;2023-01-25T21:06:21;3.40;92.40
62259;DHT22;48241;48.824;10.102;2023-01-25T21:08:47;3.20;93.10
62259;DHT22;48241;48.824;10.102;2023-01-25T21:11:15;3.10;93.50
62259;DHT22;48241;48.824;10.102;2023-01-25T21:13:41;3.20;93.50
62259;DHT22;48241;48.824;10.102;2023-01-25T21:16:30;3.30;92.80
62259;DHT22;48241;48.824;10.102;2023-01-25T21:18:58;3.50;92.30
62259;DHT22;48241;48.824;10.102;2023-01-25T21:21:34;3.10;93.10
62259;DHT22;48241;48.824;10.102;2023-01-25T21:24:00;3.30;92.60
62259;DHT22;48241;48.824;10.102;2023-01-25T21:26:33;3.20;91.90
62259;DHT22;48241;48.824;10.102;2023-01-25T21:29:08;3.20;92.00
62259;DHT22;48241;48.824;10.102;2023-01-25T21:31:36;3.10;92.90
62259;DHT22;48241;48.824;10.102;2023-01-25T21:37:17;3.40;93.10
62259;DHT22;48241;48.824;10.102;2023-01-25T21:39:44;3.20;93.10
62259;DHT22;48241;48.824;10.102;2023-01-25T21:42:10;3.30;92.90
62259;DHT22;48241;48.824;10.102;2023-01-25T21:44:38;3.30;93.30
62259;DHT22;48241;48.824;10.102;2023-01-25T21:47:22;3.50;91.80
62259;DHT22;48241;48.824;10.102;2023-01-25T21:49:48;3.80;91.50
62259;DHT22;48241;48.824;10.102;2023-01-25T21:52:32;3.80;91.10
62259;DHT22;48241;48.824;10.102;2023-01-25T21:54:58;4.00;90.70
62259;DHT22;48241;48.824;10.102;2023-01-25T21:57:25;3.70;90.80
62259;DHT22;48241;48.824;10.102;2023-01-25T21:59:50;3.60;91.30
62259;DHT22;48241;48.824;10.102;2023-01-25T22:02:16;3.50;91.90
62259;DHT22;48241;48.824;10.102;2023-01-25T22:04:42;3.40;92.40
62259;DHT22;48241;48.824;10.102;2023-01-25T22:07:08;3.50;92.00
62259;DHT22;48241;48.824;10.102;2023-01-25T22:09:34;3.70;91.70
62259;DHT22;48241;48.824;10.102;2023-01-25T22:12:00;3.80;91.10
62259;DHT22;48241;48.824;10.102;2023-01-25T22:14:28;3.80;90.60
62259;DHT22;48241;48.824;10.102;2023-01-25T22:16:54;3.60;90.90
62259;DHT22;48241;48.824;10.102;2023-01-25T22:19:22;3.40;91.10
62259;DHT22;48241;48.824;10.102;2023-01-25T22:21:48;3.30;91.10
62259;DHT22;48241;48.824;10.102;2023-01-25T22:24:16;3.30;91.50
62259;DHT22;48241;48.824;10.102;2023-01-25T22:29:48;3.50;91.40
62259;DHT22;48241;48.824;10.102;2023-01-25T22:32:14;3.40;91.40
62259;DHT22;48241;48.824;10.102;2023-01-25T22:34:40;3.50;91.30
62259;DHT22;48241;48.824;10.102;2023-01-25T22:37:05;3.60;90.90
62259;DHT22;48241;48.824;10.102;2023-01-25T22:39:31;3.80;90.60
62259;DHT22;48241;48.824;10.102;2023-01-25T22:41:56;3.80;90.70
62259;DHT22;48241;48.824;10.102;2023-01-25T22:44:22;3.70;90.60
62259;DHT22;48241;48.824;10.102;2023-01-25T22:46:48;3.70;90.30
62259;DHT22;48241;48.824;10.102;2023-01-25T22:49:14;3.60;90.30
62259;DHT22;48241;48.824;10.102;2023-01-25T22:51:40;3.50;90.40
62259;DHT22;48241;48.824;10.102;2023-01-25T22:54:06;3.80;90.60
62259;DHT22;48241;48.824;10.102;2023-01-25T22:56:32;3.60;91.00
62259;DHT22;48241;48.824;10.102;2023-01-25T22:58:59;3.60;91.20
62259;DHT22;48241;48.824;10.102;2023-01-25T23:01:31;3.70;91.00
62259;DHT22;48241;48.824;10.102;2023-01-25T23:03:57;3.70;90.40
62259;DHT22;48241;48.824;10.102;2023-01-25T23:06:25;3.40;90.60
62259;DHT22;48241;48.824;10.102;2023-01-25T23:08:58;3.30;90.60
62259;DHT22;48241;48.824;10.102;2023-01-25T23:11:25;3.10;91.10
62259;DHT22;48241;48.824;10.102;2023-01-25T23:13:56;3.20;91.40
62259;DHT22;48241;48.824;10.102;2023-01-25T23:16:41;3.00;92.20
62259;DHT22;48241;48.824;10.102;2023-01-25T23:19:09;3.10;92.40
62259;DHT22;48241;48.824;10.102;2023-01-25T23:21:35;3.40;91.80
62259;DHT22;48241;48.824;10.102;2023-01-25T23:24:02;3.50;91.50
62259;DHT22;48241;48.824;10.102;2023-01-25T23:26:29;3.60;90.70
62259;DHT22;48241;48.824;10.102;2023-01-25T23:28:58;3.50;90.90
62259;DHT22;48241;48.824;10.102;2023-01-25T23:31:24;3.60;90.90
62259;DHT22;48241;48.824;10.102;2023-01-25T23:33:52;3.60;91.20
62259;DHT22;48241;48.824;10.102;2023-01-25T23:36:23;3.60;91.30
62259;DHT22;48241;48.824;10.102;2023-01-25T23:38:49;3.40;91.10
62259;DHT22;48241;48.824;10.102;2023-01-25T23:41:19;3.40;91.60
62259;DHT22;48241;48.824;10.102;2023-01-25T23:43:46;3.50;91.70
62259;DHT22;48241;48.824;10.102;2023-01-25T23:46:12;3.60;91.60
62259;DHT22;48241;48.824;10.102;2023-01-25T23:48:39;3.50;91.50
62259;DHT22;48241;48.824;10.102;2023-01-25T23:51:05;3.70;91.10